Beloit, Kansas
Current Conditions -  °F | °C
As of 7:55 PM on Sunday 21 Dec 2014 (Local Time) from KCNK Reporting Station
Overcast Overcast  
Wind Chill: 36°   Ceiling: 600
Heat Index: 43°   Visibility: 7mi
Dew Point: 42°   Wind: 14mph
Humidity: 97%   Direction: 160°SSE
Pressure: 29.64"   Gusts: NA
Location:  39.46°N, 98.11°W
Report Text: KCNK 220155Z AUTO 16012KT 7SM OVC006 06/06 A2964 RMK AO2 SLP042 T00610056
Loading
Personal Weather Stations






























Interactive Weather Map New forecast layout! Learn more

10-Day Weather Forecast

Advertisements
Track Severe Weather on mobile